sensor_id;sensor_type;location;lat;lon;timestamp;P1;durP1;ratioP1;P2;durP2;ratioP2
41739;SDS011;27422;52.444;13.300;2024-01-11T00:02:16;40.05;;;17.98;;
41739;SDS011;27422;52.444;13.300;2024-01-11T00:04:42;43.63;;;19.97;;
41739;SDS011;27422;52.444;13.300;2024-01-11T00:07:09;40.33;;;18.27;;
41739;SDS011;27422;52.444;13.300;2024-01-11T00:09:38;42.97;;;19.27;;
41739;SDS011;27422;52.444;13.300;2024-01-11T00:12:06;40.10;;;18.40;;
41739;SDS011;27422;52.444;13.300;2024-01-11T00:14:32;38.10;;;17.40;;
41739;SDS011;27422;52.444;13.300;2024-01-11T00:17:00;39.03;;;18.10;;
41739;SDS011;27422;52.444;13.300;2024-01-11T00:19:26;39.10;;;17.88;;
41739;SDS011;27422;52.444;13.300;2024-01-11T00:22:00;37.22;;;17.00;;
41739;SDS011;27422;52.444;13.300;2024-01-11T00:24:25;35.83;;;17.05;;
41739;SDS011;27422;52.444;13.300;2024-01-11T00:26:51;33.53;;;15.88;;
41739;SDS011;27422;52.444;13.300;2024-01-11T00:29:16;28.75;;;14.35;;
41739;SDS011;27422;52.444;13.300;2024-01-11T00:31:42;35.17;;;15.77;;
41739;SDS011;27422;52.444;13.300;2024-01-11T00:34:07;32.63;;;14.70;;
41739;SDS011;27422;52.444;13.300;2024-01-11T00:36:36;31.35;;;14.55;;
41739;SDS011;27422;52.444;13.300;2024-01-11T00:39:11;31.20;;;15.55;;
41739;SDS011;27422;52.444;13.300;2024-01-11T00:41:39;29.88;;;14.05;;
41739;SDS011;27422;52.444;13.300;2024-01-11T00:44:05;30.83;;;14.32;;
41739;SDS011;27422;52.444;13.300;2024-01-11T00:46:32;30.25;;;14.10;;
41739;SDS011;27422;52.444;13.300;2024-01-11T00:48:58;30.15;;;14.18;;
41739;SDS011;27422;52.444;13.300;2024-01-11T00:51:23;29.02;;;13.45;;
41739;SDS011;27422;52.444;13.300;2024-01-11T00:53:48;24.08;;;12.25;;
41739;SDS011;27422;52.444;13.300;2024-01-11T00:56:17;25.55;;;12.07;;
41739;SDS011;27422;52.444;13.300;2024-01-11T00:58:43;24.67;;;10.90;;
41739;SDS011;27422;52.444;13.300;2024-01-11T01:01:09;25.50;;;11.73;;
41739;SDS011;27422;52.444;13.300;2024-01-11T01:03:34;28.23;;;12.38;;
41739;SDS011;27422;52.444;13.300;2024-01-11T01:06:00;27.58;;;12.85;;
41739;SDS011;27422;52.444;13.300;2024-01-11T01:08:45;25.38;;;12.40;;
41739;SDS011;27422;52.444;13.300;2024-01-11T01:11:11;25.92;;;13.10;;
41739;SDS011;27422;52.444;13.300;2024-01-11T01:13:36;29.20;;;13.82;;
41739;SDS011;27422;52.444;13.300;2024-01-11T01:16:02;28.42;;;13.45;;
41739;SDS011;27422;52.444;13.300;2024-01-11T01:18:31;29.27;;;14.48;;
41739;SDS011;27422;52.444;13.300;2024-01-11T01:20:56;28.42;;;12.45;;
41739;SDS011;27422;52.444;13.300;2024-01-11T01:23:21;24.17;;;11.45;;
41739;SDS011;27422;52.444;13.300;2024-01-11T01:25:47;26.65;;;11.45;;
41739;SDS011;27422;52.444;13.300;2024-01-11T01:28:13;23.45;;;11.52;;
41739;SDS011;27422;52.444;13.300;2024-01-11T01:30:38;24.90;;;11.43;;
41739;SDS011;27422;52.444;13.300;2024-01-11T01:33:04;28.17;;;11.82;;
41739;SDS011;27422;52.444;13.300;2024-01-11T01:35:29;26.85;;;11.95;;
41739;SDS011;27422;52.444;13.300;2024-01-11T01:37:58;22.17;;;10.32;;
41739;SDS011;27422;52.444;13.300;2024-01-11T01:40:24;23.80;;;11.25;;
41739;SDS011;27422;52.444;13.300;2024-01-11T01:42:49;27.40;;;11.60;;
41739;SDS011;27422;52.444;13.300;2024-01-11T01:45:18;28.55;;;12.52;;
41739;SDS011;27422;52.444;13.300;2024-01-11T01:47:48;27.13;;;12.00;;
41739;SDS011;27422;52.444;13.300;2024-01-11T01:50:13;29.42;;;11.77;;
41739;SDS011;27422;52.444;13.300;2024-01-11T01:52:39;24.02;;;10.95;;
41739;SDS011;27422;52.444;13.300;2024-01-11T01:55:05;22.85;;;11.05;;
41739;SDS011;27422;52.444;13.300;2024-01-11T01:57:32;22.85;;;10.57;;
41739;SDS011;27422;52.444;13.300;2024-01-11T02:00:04;19.40;;;9.88;;
41739;SDS011;27422;52.444;13.300;2024-01-11T02:02:30;21.42;;;10.05;;
41739;SDS011;27422;52.444;13.300;2024-01-11T02:04:56;22.60;;;10.32;;
41739;SDS011;27422;52.444;13.300;2024-01-11T02:07:22;16.45;;;8.27;;
41739;SDS011;27422;52.444;13.300;2024-01-11T02:09:51;21.27;;;9.48;;
41739;SDS011;27422;52.444;13.300;2024-01-11T02:12:17;21.00;;;9.45;;
41739;SDS011;27422;52.444;13.300;2024-01-11T02:17:31;17.30;;;8.68;;
41739;SDS011;27422;52.444;13.300;2024-01-11T02:20:00;23.42;;;10.35;;
41739;SDS011;27422;52.444;13.300;2024-01-11T02:22:38;21.23;;;9.82;;
41739;SDS011;27422;52.444;13.300;2024-01-11T02:25:06;21.75;;;9.98;;
41739;SDS011;27422;52.444;13.300;2024-01-11T02:27:44;23.75;;;10.77;;
41739;SDS011;27422;52.444;13.300;2024-01-11T02:30:11;24.92;;;10.60;;
41739;SDS011;27422;52.444;13.300;2024-01-11T02:32:36;25.58;;;10.60;;
41739;SDS011;27422;52.444;13.300;2024-01-11T02:35:02;20.40;;;10.20;;
41739;SDS011;27422;52.444;13.300;2024-01-11T02:37:28;26.35;;;10.65;;
41739;SDS011;27422;52.444;13.300;2024-01-11T02:39:54;20.58;;;9.98;;
41739;SDS011;27422;52.444;13.300;2024-01-11T02:42:20;19.10;;;9.80;;
41739;SDS011;27422;52.444;13.300;2024-01-11T02:44:46;21.77;;;10.18;;
41739;SDS011;27422;52.444;13.300;2024-01-11T02:47:12;24.00;;;10.40;;
41739;SDS011;27422;52.444;13.300;2024-01-11T02:49:37;23.20;;;10.82;;
41739;SDS011;27422;52.444;13.300;2024-01-11T02:52:03;23.58;;;9.98;;
41739;SDS011;27422;52.444;13.300;2024-01-11T02:54:28;23.95;;;10.13;;
41739;SDS011;27422;52.444;13.300;2024-01-11T02:56:54;24.33;;;10.55;;
41739;SDS011;27422;52.444;13.300;2024-01-11T02:59:22;19.05;;;9.05;;
41739;SDS011;27422;52.444;13.300;2024-01-11T03:01:48;20.38;;;10.25;;
41739;SDS011;27422;52.444;13.300;2024-01-11T03:04:13;19.90;;;8.00;;
41739;SDS011;27422;52.444;13.300;2024-01-11T03:06:42;18.63;;;9.02;;
41739;SDS011;27422;52.444;13.300;2024-01-11T03:09:10;21.42;;;8.55;;
41739;SDS011;27422;52.444;13.300;2024-01-11T03:11:35;19.30;;;8.75;;
41739;SDS011;27422;52.444;13.300;2024-01-11T03:14:02;21.63;;;9.10;;
41739;SDS011;27422;52.444;13.300;2024-01-11T03:16:28;18.02;;;8.98;;
41739;SDS011;27422;52.444;13.300;2024-01-11T03:18:53;20.25;;;8.95;;
41739;SDS011;27422;52.444;13.300;2024-01-11T03:21:19;21.42;;;9.18;;
41739;SDS011;27422;52.444;13.300;2024-01-11T03:23:44;18.52;;;8.30;;
41739;SDS011;27422;52.444;13.300;2024-01-11T03:26:20;19.67;;;8.60;;
41739;SDS011;27422;52.444;13.300;2024-01-11T03:28:51;16.30;;;7.80;;
41739;SDS011;27422;52.444;13.300;2024-01-11T03:31:18;20.25;;;8.10;;
41739;SDS011;27422;52.444;13.300;2024-01-11T03:33:50;20.05;;;8.10;;
41739;SDS011;27422;52.444;13.300;2024-01-11T03:36:24;18.83;;;8.15;;
41739;SDS011;27422;52.444;13.300;2024-01-11T03:38:52;20.50;;;8.20;;
41739;SDS011;27422;52.444;13.300;2024-01-11T03:41:20;20.13;;;8.70;;
41739;SDS011;27422;52.444;13.300;2024-01-11T03:43:45;16.02;;;7.82;;
41739;SDS011;27422;52.444;13.300;2024-01-11T03:46:11;17.13;;;7.30;;
41739;SDS011;27422;52.444;13.300;2024-01-11T03:48:36;17.98;;;7.60;;
41739;SDS011;27422;52.444;13.300;2024-01-11T03:51:04;21.00;;;7.90;;
41739;SDS011;27422;52.444;13.300;2024-01-11T03:53:29;18.10;;;7.47;;
41739;SDS011;27422;52.444;13.300;2024-01-11T03:55:55;15.45;;;6.85;;
41739;SDS011;27422;52.444;13.300;2024-01-11T03:58:25;18.52;;;7.00;;
41739;SDS011;27422;52.444;13.300;2024-01-11T04:00:54;16.48;;;6.45;;
41739;SDS011;27422;52.444;13.300;2024-01-11T04:03:29;12.93;;;5.78;;
41739;SDS011;27422;52.444;13.300;2024-01-11T04:05:54;14.70;;;6.03;;
41739;SDS011;27422;52.444;13.300;2024-01-11T04:08:19;19.10;;;7.88;;
41739;SDS011;27422;52.444;13.300;2024-01-11T04:10:45;16.73;;;6.93;;
41739;SDS011;27422;52.444;13.300;2024-01-11T04:13:10;13.90;;;6.03;;
41739;SDS011;27422;52.444;13.300;2024-01-11T04:15:36;15.75;;;6.47;;
41739;SDS011;27422;52.444;13.300;2024-01-11T04:18:01;21.50;;;7.35;;
41739;SDS011;27422;52.444;13.300;2024-01-11T04:20:39;14.02;;;5.97;;
41739;SDS011;27422;52.444;13.300;2024-01-11T04:23:07;14.63;;;5.97;;
41739;SDS011;27422;52.444;13.300;2024-01-11T04:25:33;16.10;;;6.10;;
41739;SDS011;27422;52.444;13.300;2024-01-11T04:27:58;18.55;;;6.68;;
41739;SDS011;27422;52.444;13.300;2024-01-11T04:30:23;16.92;;;6.70;;
41739;SDS011;27422;52.444;13.300;2024-01-11T04:32:49;14.85;;;6.05;;
41739;SDS011;27422;52.444;13.300;2024-01-11T04:35:14;15.25;;;6.40;;
41739;SDS011;27422;52.444;13.300;2024-01-11T04:37:40;12.95;;;5.65;;
41739;SDS011;27422;52.444;13.300;2024-01-11T04:40:09;15.30;;;6.50;;
41739;SDS011;27422;52.444;13.300;2024-01-11T04:42:39;17.17;;;6.93;;
41739;SDS011;27422;52.444;13.300;2024-01-11T04:45:05;19.83;;;6.90;;
41739;SDS011;27422;52.444;13.300;2024-01-11T04:47:30;17.90;;;6.90;;
41739;SDS011;27422;52.444;13.300;2024-01-11T04:50:00;18.27;;;6.63;;
41739;SDS011;27422;52.444;13.300;2024-01-11T04:52:25;22.60;;;6.30;;
41739;SDS011;27422;52.444;13.300;2024-01-11T04:54:51;16.33;;;6.80;;
41739;SDS011;27422;52.444;13.300;2024-01-11T04:57:17;18.00;;;6.93;;
41739;SDS011;27422;52.444;13.300;2024-01-11T04:59:42;16.30;;;5.97;;
41739;SDS011;27422;52.444;13.300;2024-01-11T05:02:08;22.48;;;7.07;;
41739;SDS011;27422;52.444;13.300;2024-01-11T05:04:34;21.95;;;7.28;;
41739;SDS011;27422;52.444;13.300;2024-01-11T05:07:02;20.38;;;6.60;;
41739;SDS011;27422;52.444;13.300;2024-01-11T05:09:30;19.85;;;7.20;;
41739;SDS011;27422;52.444;13.300;2024-01-11T05:11:55;17.88;;;6.55;;
41739;SDS011;27422;52.444;13.300;2024-01-11T05:14:20;23.10;;;6.55;;
41739;SDS011;27422;52.444;13.300;2024-01-11T05:16:46;18.17;;;7.07;;
41739;SDS011;27422;52.444;13.300;2024-01-11T05:19:27;22.67;;;7.20;;
41739;SDS011;27422;52.444;13.300;2024-01-11T05:21:56;24.27;;;7.60;;
41739;SDS011;27422;52.444;13.300;2024-01-11T05:24:27;20.83;;;7.20;;
41739;SDS011;27422;52.444;13.300;2024-01-11T05:26:53;22.60;;;6.72;;
41739;SDS011;27422;52.444;13.300;2024-01-11T05:29:18;20.80;;;6.95;;
41739;SDS011;27422;52.444;13.300;2024-01-11T05:31:51;23.98;;;7.75;;
41739;SDS011;27422;52.444;13.300;2024-01-11T05:34:17;24.40;;;8.70;;
41739;SDS011;27422;52.444;13.300;2024-01-11T05:36:53;19.60;;;7.32;;
41739;SDS011;27422;52.444;13.300;2024-01-11T05:39:21;21.23;;;7.35;;
41739;SDS011;27422;52.444;13.300;2024-01-11T05:41:47;20.10;;;7.43;;
41739;SDS011;27422;52.444;13.300;2024-01-11T05:44:12;23.50;;;7.43;;
41739;SDS011;27422;52.444;13.300;2024-01-11T05:46:38;21.02;;;6.57;;
41739;SDS011;27422;52.444;13.300;2024-01-11T05:49:03;22.27;;;8.05;;
41739;SDS011;27422;52.444;13.300;2024-01-11T05:51:40;23.95;;;7.88;;
41739;SDS011;27422;52.444;13.300;2024-01-11T05:54:22;23.80;;;8.05;;
41739;SDS011;27422;52.444;13.300;2024-01-11T05:56:48;25.33;;;7.72;;
41739;SDS011;27422;52.444;13.300;2024-01-11T05:59:16;25.95;;;8.73;;
41739;SDS011;27422;52.444;13.300;2024-01-11T06:01:44;24.83;;;8.32;;
41739;SDS011;27422;52.444;13.300;2024-01-11T06:04:15;22.85;;;8.40;;
41739;SDS011;27422;52.444;13.300;2024-01-11T06:06:41;23.60;;;8.15;;
41739;SDS011;27422;52.444;13.300;2024-01-11T06:09:24;21.15;;;7.68;;
41739;SDS011;27422;52.444;13.300;2024-01-11T06:11:51;24.75;;;8.15;;
41739;SDS011;27422;52.444;13.300;2024-01-11T06:14:17;28.77;;;8.87;;
41739;SDS011;27422;52.444;13.300;2024-01-11T06:16:43;26.70;;;8.90;;
41739;SDS011;27422;52.444;13.300;2024-01-11T06:19:12;21.30;;;7.35;;
41739;SDS011;27422;52.444;13.300;2024-01-11T06:21:40;24.92;;;7.88;;
41739;SDS011;27422;52.444;13.300;2024-01-11T06:24:15;26.20;;;8.35;;
41739;SDS011;27422;52.444;13.300;2024-01-11T06:26:41;21.67;;;7.93;;
41739;SDS011;27422;52.444;13.300;2024-01-11T06:29:06;27.50;;;10.10;;
41739;SDS011;27422;52.444;13.300;2024-01-11T06:31:32;26.20;;;8.02;;
41739;SDS011;27422;52.444;13.300;2024-01-11T06:33:57;29.73;;;9.10;;
41739;SDS011;27422;52.444;13.300;2024-01-11T06:36:23;24.75;;;8.85;;
41739;SDS011;27422;52.444;13.300;2024-01-11T06:38:48;24.65;;;9.40;;
41739;SDS011;27422;52.444;13.300;2024-01-11T06:41:16;27.48;;;8.95;;
41739;SDS011;27422;52.444;13.300;2024-01-11T06:43:41;29.85;;;9.50;;
41739;SDS011;27422;52.444;13.300;2024-01-11T06:46:07;23.08;;;8.82;;
41739;SDS011;27422;52.444;13.300;2024-01-11T06:48:37;34.05;;;9.88;;
41739;SDS011;27422;52.444;13.300;2024-01-11T06:51:09;26.75;;;9.68;;
41739;SDS011;27422;52.444;13.300;2024-01-11T06:53:39;32.00;;;9.37;;
41739;SDS011;27422;52.444;13.300;2024-01-11T06:56:17;31.17;;;9.63;;
41739;SDS011;27422;52.444;13.300;2024-01-11T06:58:44;28.42;;;9.88;;
41739;SDS011;27422;52.444;13.300;2024-01-11T07:01:11;34.75;;;10.57;;
41739;SDS011;27422;52.444;13.300;2024-01-11T07:03:37;31.58;;;9.48;;
41739;SDS011;27422;52.444;13.300;2024-01-11T07:06:03;28.10;;;9.50;;
41739;SDS011;27422;52.444;13.300;2024-01-11T07:08:36;31.25;;;9.98;;
41739;SDS011;27422;52.444;13.300;2024-01-11T07:11:07;29.10;;;9.55;;
41739;SDS011;27422;52.444;13.300;2024-01-11T07:13:38;41.30;;;11.00;;
41739;SDS011;27422;52.444;13.300;2024-01-11T07:16:03;28.23;;;9.73;;
41739;SDS011;27422;52.444;13.300;2024-01-11T07:18:29;32.95;;;10.40;;
41739;SDS011;27422;52.444;13.300;2024-01-11T07:20:58;36.20;;;10.90;;
41739;SDS011;27422;52.444;13.300;2024-01-11T07:23:24;38.80;;;10.57;;
41739;SDS011;27422;52.444;13.300;2024-01-11T07:25:50;30.80;;;10.48;;
41739;SDS011;27422;52.444;13.300;2024-01-11T07:28:18;39.40;;;11.57;;
41739;SDS011;27422;52.444;13.300;2024-01-11T07:30:44;31.58;;;11.50;;
41739;SDS011;27422;52.444;13.300;2024-01-11T07:33:11;30.33;;;10.60;;
41739;SDS011;27422;52.444;13.300;2024-01-11T07:35:40;31.67;;;11.00;;
41739;SDS011;27422;52.444;13.300;2024-01-11T07:38:10;34.25;;;10.95;;
41739;SDS011;27422;52.444;13.300;2024-01-11T07:40:36;35.00;;;10.85;;
41739;SDS011;27422;52.444;13.300;2024-01-11T07:43:01;37.38;;;11.65;;
41739;SDS011;27422;52.444;13.300;2024-01-11T07:45:28;32.50;;;11.30;;
41739;SDS011;27422;52.444;13.300;2024-01-11T07:47:55;33.95;;;10.52;;
41739;SDS011;27422;52.444;13.300;2024-01-11T07:50:20;37.13;;;11.90;;
41739;SDS011;27422;52.444;13.300;2024-01-11T07:52:46;39.40;;;11.27;;
41739;SDS011;27422;52.444;13.300;2024-01-11T07:55:11;40.58;;;12.48;;
41739;SDS011;27422;52.444;13.300;2024-01-11T07:57:38;35.85;;;11.98;;
41739;SDS011;27422;52.444;13.300;2024-01-11T08:00:04;32.35;;;11.57;;
41739;SDS011;27422;52.444;13.300;2024-01-11T08:02:33;35.28;;;11.75;;
41739;SDS011;27422;52.444;13.300;2024-01-11T08:04:59;29.80;;;11.18;;
41739;SDS011;27422;52.444;13.300;2024-01-11T08:07:39;39.60;;;11.80;;
41739;SDS011;27422;52.444;13.300;2024-01-11T08:10:08;36.42;;;12.32;;
41739;SDS011;27422;52.444;13.300;2024-01-11T08:12:36;31.48;;;11.65;;
41739;SDS011;27422;52.444;13.300;2024-01-11T08:15:02;34.65;;;11.82;;
41739;SDS011;27422;52.444;13.300;2024-01-11T08:17:28;32.90;;;11.32;;
41739;SDS011;27422;52.444;13.300;2024-01-11T08:20:00;31.58;;;11.40;;
41739;SDS011;27422;52.444;13.300;2024-01-11T08:22:34;38.17;;;11.98;;
41739;SDS011;27422;52.444;13.300;2024-01-11T08:25:01;32.38;;;11.57;;
41739;SDS011;27422;52.444;13.300;2024-01-11T08:27:29;36.08;;;11.82;;
41739;SDS011;27422;52.444;13.300;2024-01-11T08:29:56;30.90;;;11.20;;
41739;SDS011;27422;52.444;13.300;2024-01-11T08:32:22;34.30;;;11.88;;
41739;SDS011;27422;52.444;13.300;2024-01-11T08:34:47;33.28;;;11.57;;
41739;SDS011;27422;52.444;13.300;2024-01-11T08:37:13;39.95;;;12.98;;
41739;SDS011;27422;52.444;13.300;2024-01-11T08:39:39;35.63;;;12.23;;
41739;SDS011;27422;52.444;13.300;2024-01-11T08:42:05;35.50;;;12.25;;
41739;SDS011;27422;52.444;13.300;2024-01-11T08:44:30;42.03;;;12.07;;
41739;SDS011;27422;52.444;13.300;2024-01-11T08:47:02;35.15;;;12.05;;
41739;SDS011;27422;52.444;13.300;2024-01-11T08:49:28;34.25;;;11.52;;
41739;SDS011;27422;52.444;13.300;2024-01-11T08:51:54;35.80;;;11.45;;
41739;SDS011;27422;52.444;13.300;2024-01-11T08:54:19;34.35;;;11.98;;
41739;SDS011;27422;52.444;13.300;2024-01-11T08:56:46;36.10;;;12.18;;
41739;SDS011;27422;52.444;13.300;2024-01-11T08:59:12;34.47;;;12.05;;
41739;SDS011;27422;52.444;13.300;2024-01-11T09:01:37;33.83;;;12.30;;
41739;SDS011;27422;52.444;13.300;2024-01-11T09:04:04;35.97;;;12.13;;
41739;SDS011;27422;52.444;13.300;2024-01-11T09:06:30;38.40;;;12.93;;
41739;SDS011;27422;52.444;13.300;2024-01-11T09:08:56;31.00;;;11.20;;
41739;SDS011;27422;52.444;13.300;2024-01-11T09:11:22;33.42;;;11.98;;
41739;SDS011;27422;52.444;13.300;2024-01-11T09:13:59;32.80;;;11.60;;
41739;SDS011;27422;52.444;13.300;2024-01-11T09:16:24;37.58;;;13.98;;
41739;SDS011;27422;52.444;13.300;2024-01-11T09:18:50;41.65;;;13.18;;
41739;SDS011;27422;52.444;13.300;2024-01-11T09:21:16;35.63;;;12.77;;
41739;SDS011;27422;52.444;13.300;2024-01-11T09:23:41;37.45;;;13.38;;
41739;SDS011;27422;52.444;13.300;2024-01-11T09:26:07;42.00;;;15.07;;
41739;SDS011;27422;52.444;13.300;2024-01-11T09:28:35;36.97;;;12.70;;
41739;SDS011;27422;52.444;13.300;2024-01-11T09:31:01;37.97;;;13.82;;
41739;SDS011;27422;52.444;13.300;2024-01-11T09:33:27;37.55;;;12.82;;
41739;SDS011;27422;52.444;13.300;2024-01-11T09:35:54;38.83;;;13.43;;
41739;SDS011;27422;52.444;13.300;2024-01-11T09:38:23;37.05;;;13.52;;
41739;SDS011;27422;52.444;13.300;2024-01-11T09:41:08;37.75;;;13.32;;
41739;SDS011;27422;52.444;13.300;2024-01-11T09:43:35;38.88;;;13.18;;
41739;SDS011;27422;52.444;13.300;2024-01-11T09:46:04;40.55;;;13.55;;
41739;SDS011;27422;52.444;13.300;2024-01-11T09:48:37;39.92;;;13.55;;
41739;SDS011;27422;52.444;13.300;2024-01-11T09:51:09;40.72;;;14.20;;
41739;SDS011;27422;52.444;13.300;2024-01-11T09:53:38;38.60;;;13.50;;
41739;SDS011;27422;52.444;13.300;2024-01-11T09:56:07;35.17;;;13.25;;
41739;SDS011;27422;52.444;13.300;2024-01-11T09:58:37;38.00;;;13.57;;
41739;SDS011;27422;52.444;13.300;2024-01-11T10:01:05;39.83;;;13.80;;
41739;SDS011;27422;52.444;13.300;2024-01-11T10:03:34;36.42;;;13.07;;
41739;SDS011;27422;52.444;13.300;2024-01-11T10:05:59;35.70;;;13.02;;
41739;SDS011;27422;52.444;13.300;2024-01-11T10:08:29;38.85;;;14.48;;
41739;SDS011;27422;52.444;13.300;2024-01-11T10:11:05;44.28;;;14.63;;
41739;SDS011;27422;52.444;13.300;2024-01-11T10:13:31;47.33;;;15.30;;
41739;SDS011;27422;52.444;13.300;2024-01-11T10:16:10;40.20;;;14.38;;
41739;SDS011;27422;52.444;13.300;2024-01-11T10:18:38;40.63;;;14.25;;
41739;SDS011;27422;52.444;13.300;2024-01-11T10:21:04;41.35;;;14.73;;
41739;SDS011;27422;52.444;13.300;2024-01-11T10:23:34;43.08;;;13.55;;
41739;SDS011;27422;52.444;13.300;2024-01-11T10:26:01;40.90;;;13.77;;
41739;SDS011;27422;52.444;13.300;2024-01-11T10:28:30;43.72;;;14.10;;
41739;SDS011;27422;52.444;13.300;2024-01-11T10:31:03;39.38;;;13.75;;
41739;SDS011;27422;52.444;13.300;2024-01-11T10:33:34;39.75;;;13.20;;
41739;SDS011;27422;52.444;13.300;2024-01-11T10:36:01;38.53;;;14.77;;
41739;SDS011;27422;52.444;13.300;2024-01-11T10:38:30;39.90;;;13.23;;
41739;SDS011;27422;52.444;13.300;2024-01-11T10:40:59;40.38;;;14.07;;
41739;SDS011;27422;52.444;13.300;2024-01-11T10:43:26;43.22;;;14.40;;
41739;SDS011;27422;52.444;13.300;2024-01-11T10:45:52;42.60;;;14.30;;
41739;SDS011;27422;52.444;13.300;2024-01-11T10:48:22;37.03;;;12.93;;
41739;SDS011;27422;52.444;13.300;2024-01-11T10:50:49;40.80;;;13.45;;
41739;SDS011;27422;52.444;13.300;2024-01-11T10:53:52;40.88;;;14.20;;
41739;SDS011;27422;52.444;13.300;2024-01-11T10:56:12;43.65;;;14.52;;
41739;SDS011;27422;52.444;13.300;2024-01-11T10:58:46;39.05;;;14.48;;
41739;SDS011;27422;52.444;13.300;2024-01-11T11:01:15;40.05;;;14.27;;
41739;SDS011;27422;52.444;13.300;2024-01-11T11:03:42;39.08;;;14.02;;
41739;SDS011;27422;52.444;13.300;2024-01-11T11:06:09;41.22;;;14.18;;
41739;SDS011;27422;52.444;13.300;2024-01-11T11:08:35;41.45;;;14.50;;
41739;SDS011;27422;52.444;13.300;2024-01-11T11:11:02;40.17;;;14.07;;
41739;SDS011;27422;52.444;13.300;2024-01-11T11:13:34;38.42;;;12.85;;
41739;SDS011;27422;52.444;13.300;2024-01-11T11:19:22;40.20;;;13.85;;
41739;SDS011;27422;52.444;13.300;2024-01-11T11:21:57;36.22;;;13.27;;
41739;SDS011;27422;52.444;13.300;2024-01-11T11:24:23;40.30;;;14.32;;
41739;SDS011;27422;52.444;13.300;2024-01-11T11:26:48;39.47;;;13.85;;
41739;SDS011;27422;52.444;13.300;2024-01-11T11:29:15;40.22;;;13.48;;
41739;SDS011;27422;52.444;13.300;2024-01-11T11:31:44;41.75;;;13.80;;
41739;SDS011;27422;52.444;13.300;2024-01-11T11:34:39;37.67;;;13.55;;
41739;SDS011;27422;52.444;13.300;2024-01-11T11:37:26;41.92;;;13.50;;
41739;SDS011;27422;52.444;13.300;2024-01-11T11:39:54;41.85;;;14.05;;
41739;SDS011;27422;52.444;13.300;2024-01-11T11:42:22;47.95;;;13.88;;
41739;SDS011;27422;52.444;13.300;2024-01-11T11:44:48;41.15;;;13.18;;
41739;SDS011;27422;52.444;13.300;2024-01-11T11:47:20;48.25;;;17.67;;
41739;SDS011;27422;52.444;13.300;2024-01-11T11:50:04;40.72;;;13.85;;
41739;SDS011;27422;52.444;13.300;2024-01-11T11:52:33;42.60;;;14.82;;
41739;SDS011;27422;52.444;13.300;2024-01-11T11:55:05;47.30;;;15.05;;
41739;SDS011;27422;52.444;13.300;2024-01-11T11:57:34;45.60;;;14.73;;
41739;SDS011;27422;52.444;13.300;2024-01-11T12:00:00;44.42;;;14.98;;
41739;SDS011;27422;52.444;13.300;2024-01-11T12:02:30;43.83;;;14.80;;
41739;SDS011;27422;52.444;13.300;2024-01-11T12:04:56;50.00;;;16.73;;
41739;SDS011;27422;52.444;13.300;2024-01-11T12:07:24;50.28;;;15.25;;
41739;SDS011;27422;52.444;13.300;2024-01-11T12:09:50;49.78;;;15.70;;
41739;SDS011;27422;52.444;13.300;2024-01-11T12:12:17;48.17;;;14.75;;
41739;SDS011;27422;52.444;13.300;2024-01-11T12:14:45;48.05;;;16.27;;
41739;SDS011;27422;52.444;13.300;2024-01-11T12:17:11;48.47;;;15.38;;
41739;SDS011;27422;52.444;13.300;2024-01-11T12:19:37;46.00;;;14.57;;
41739;SDS011;27422;52.444;13.300;2024-01-11T12:22:02;50.83;;;16.15;;
41739;SDS011;27422;52.444;13.300;2024-01-11T12:24:28;49.83;;;16.40;;
41739;SDS011;27422;52.444;13.300;2024-01-11T12:26:56;46.47;;;14.20;;
41739;SDS011;27422;52.444;13.300;2024-01-11T12:29:22;47.38;;;15.10;;
41739;SDS011;27422;52.444;13.300;2024-01-11T12:31:57;47.50;;;15.13;;
41739;SDS011;27422;52.444;13.300;2024-01-11T12:34:23;45.67;;;15.35;;
41739;SDS011;27422;52.444;13.300;2024-01-11T12:36:50;46.00;;;15.68;;
41739;SDS011;27422;52.444;13.300;2024-01-11T12:42:15;47.17;;;15.70;;
41739;SDS011;27422;52.444;13.300;2024-01-11T12:44:40;46.00;;;15.88;;
41739;SDS011;27422;52.444;13.300;2024-01-11T12:47:07;49.20;;;16.25;;
41739;SDS011;27422;52.444;13.300;2024-01-11T12:49:37;49.42;;;15.95;;
41739;SDS011;27422;52.444;13.300;2024-01-11T12:52:15;47.63;;;16.05;;
41739;SDS011;27422;52.444;13.300;2024-01-11T12:54:44;45.85;;;15.13;;
41739;SDS011;27422;52.444;13.300;2024-01-11T12:57:20;48.78;;;15.75;;
41739;SDS011;27422;52.444;13.300;2024-01-11T12:59:52;47.63;;;16.35;;
41739;SDS011;27422;52.444;13.300;2024-01-11T13:02:18;44.90;;;14.75;;
41739;SDS011;27422;52.444;13.300;2024-01-11T13:04:48;48.03;;;15.25;;
41739;SDS011;27422;52.444;13.300;2024-01-11T13:07:15;45.08;;;16.20;;
41739;SDS011;27422;52.444;13.300;2024-01-11T13:09:41;39.67;;;14.82;;
41739;SDS011;27422;52.444;13.300;2024-01-11T13:12:06;46.42;;;16.33;;
41739;SDS011;27422;52.444;13.300;2024-01-11T13:14:32;45.90;;;16.45;;
41739;SDS011;27422;52.444;13.300;2024-01-11T13:16:58;49.28;;;15.77;;
41739;SDS011;27422;52.444;13.300;2024-01-11T13:19:24;47.80;;;17.05;;
41739;SDS011;27422;52.444;13.300;2024-01-11T13:21:50;51.85;;;16.02;;
41739;SDS011;27422;52.444;13.300;2024-01-11T13:24:15;44.85;;;15.85;;
41739;SDS011;27422;52.444;13.300;2024-01-11T13:26:41;48.90;;;15.90;;
41739;SDS011;27422;52.444;13.300;2024-01-11T13:29:06;43.40;;;15.38;;
41739;SDS011;27422;52.444;13.300;2024-01-11T13:31:32;48.28;;;16.15;;
41739;SDS011;27422;52.444;13.300;2024-01-11T13:33:58;45.28;;;14.88;;
41739;SDS011;27422;52.444;13.300;2024-01-11T13:36:24;46.05;;;15.07;;
41739;SDS011;27422;52.444;13.300;2024-01-11T13:38:50;49.58;;;16.15;;
41739;SDS011;27422;52.444;13.300;2024-01-11T13:41:16;43.08;;;15.35;;
41739;SDS011;27422;52.444;13.300;2024-01-11T13:43:50;48.47;;;15.73;;
41739;SDS011;27422;52.444;13.300;2024-01-11T13:46:16;47.80;;;16.00;;
41739;SDS011;27422;52.444;13.300;2024-01-11T13:48:44;46.42;;;16.25;;
41739;SDS011;27422;52.444;13.300;2024-01-11T13:51:10;46.42;;;15.70;;
41739;SDS011;27422;52.444;13.300;2024-01-11T13:53:40;43.00;;;15.68;;
41739;SDS011;27422;52.444;13.300;2024-01-11T13:56:06;43.85;;;15.30;;
41739;SDS011;27422;52.444;13.300;2024-01-11T13:58:31;45.00;;;15.82;;
41739;SDS011;27422;52.444;13.300;2024-01-11T14:00:57;48.65;;;15.98;;
41739;SDS011;27422;52.444;13.300;2024-01-11T14:03:23;55.88;;;17.88;;
41739;SDS011;27422;52.444;13.300;2024-01-11T14:05:49;49.33;;;17.25;;
41739;SDS011;27422;52.444;13.300;2024-01-11T14:08:15;43.22;;;15.90;;
41739;SDS011;27422;52.444;13.300;2024-01-11T14:10:43;42.20;;;14.40;;
41739;SDS011;27422;52.444;13.300;2024-01-11T14:13:22;41.70;;;14.38;;
41739;SDS011;27422;52.444;13.300;2024-01-11T14:15:51;40.25;;;14.75;;
41739;SDS011;27422;52.444;13.300;2024-01-11T14:18:16;43.65;;;14.73;;
41739;SDS011;27422;52.444;13.300;2024-01-11T14:20:43;41.75;;;14.75;;
41739;SDS011;27422;52.444;13.300;2024-01-11T14:23:09;43.28;;;14.85;;
41739;SDS011;27422;52.444;13.300;2024-01-11T14:25:34;45.92;;;15.38;;
41739;SDS011;27422;52.444;13.300;2024-01-11T14:27:59;40.42;;;13.90;;